sensor_id;sensor_type;location;lat;lon;timestamp;P1;durP1;ratioP1;P2;durP2;ratioP2
69199;SDS011;56313;49.804;9.952;2022-12-07T03:31:28;18.00;;;12.45;;
69199;SDS011;56313;49.804;9.952;2022-12-07T03:34:11;17.20;;;12.77;;
69199;SDS011;56313;49.804;9.952;2022-12-07T03:36:57;18.33;;;13.05;;
69199;SDS011;56313;49.804;9.952;2022-12-07T03:42:44;17.15;;;13.50;;
69199;SDS011;56313;49.804;9.952;2022-12-07T03:45:19;19.52;;;13.75;;
69199;SDS011;56313;49.804;9.952;2022-12-07T03:53:57;15.60;;;11.53;;
69199;SDS011;56313;49.804;9.952;2022-12-07T03:57:08;17.17;;;12.23;;
69199;SDS011;56313;49.804;9.952;2022-12-07T03:59:47;15.50;;;11.93;;
69199;SDS011;56313;49.804;9.952;2022-12-07T04:02:36;17.30;;;11.77;;
69199;SDS011;56313;49.804;9.952;2022-12-07T04:05:19;17.00;;;11.88;;
69199;SDS011;56313;49.804;9.952;2022-12-07T04:13:34;17.83;;;12.50;;
69199;SDS011;56313;49.804;9.952;2022-12-07T04:16:21;15.70;;;11.80;;
69199;SDS011;56313;49.804;9.952;2022-12-07T04:18:55;19.23;;;12.70;;
69199;SDS011;56313;49.804;9.952;2022-12-07T04:21:36;16.35;;;11.60;;
69199;SDS011;56313;49.804;9.952;2022-12-07T04:24:25;18.80;;;12.63;;
69199;SDS011;56313;49.804;9.952;2022-12-07T04:27:10;16.10;;;13.25;;
69199;SDS011;56313;49.804;9.952;2022-12-07T04:29:38;15.88;;;12.27;;
69199;SDS011;56313;49.804;9.952;2022-12-07T04:32:16;16.88;;;11.93;;
69199;SDS011;56313;49.804;9.952;2022-12-07T04:34:41;17.65;;;12.48;;
69199;SDS011;56313;49.804;9.952;2022-12-07T04:37:17;20.75;;;12.82;;
69199;SDS011;56313;49.804;9.952;2022-12-07T04:39:57;17.10;;;12.90;;
69199;SDS011;56313;49.804;9.952;2022-12-07T04:42:51;16.92;;;12.55;;
69199;SDS011;56313;49.804;9.952;2022-12-07T04:45:20;17.38;;;13.25;;
69199;SDS011;56313;49.804;9.952;2022-12-07T04:48:05;16.45;;;12.63;;
69199;SDS011;56313;49.804;9.952;2022-12-07T04:50:44;16.63;;;12.52;;
69199;SDS011;56313;49.804;9.952;2022-12-07T04:53:23;16.42;;;12.43;;
69199;SDS011;56313;49.804;9.952;2022-12-07T04:56:48;15.52;;;10.85;;
69199;SDS011;56313;49.804;9.952;2022-12-07T04:59:29;15.98;;;11.20;;
69199;SDS011;56313;49.804;9.952;2022-12-07T05:01:57;14.32;;;10.90;;
69199;SDS011;56313;49.804;9.952;2022-12-07T05:04:25;21.30;;;12.63;;
69199;SDS011;56313;49.804;9.952;2022-12-07T05:06:54;15.40;;;11.95;;
69199;SDS011;56313;49.804;9.952;2022-12-07T05:09:22;17.58;;;12.38;;
69199;SDS011;56313;49.804;9.952;2022-12-07T05:11:47;14.95;;;10.18;;
69199;SDS011;56313;49.804;9.952;2022-12-07T05:14:16;14.15;;;9.82;;
69199;SDS011;56313;49.804;9.952;2022-12-07T05:17:01;13.35;;;10.23;;
69199;SDS011;56313;49.804;9.952;2022-12-07T05:19:55;16.05;;;10.88;;
69199;SDS011;56313;49.804;9.952;2022-12-07T05:22:34;15.60;;;11.10;;
69199;SDS011;56313;49.804;9.952;2022-12-07T05:25:28;14.20;;;10.55;;
69199;SDS011;56313;49.804;9.952;2022-12-07T05:28:20;13.63;;;9.57;;
69199;SDS011;56313;49.804;9.952;2022-12-07T05:31:05;13.45;;;10.18;;
69199;SDS011;56313;49.804;9.952;2022-12-07T05:34:00;15.82;;;9.93;;
69199;SDS011;56313;49.804;9.952;2022-12-07T05:37:15;16.13;;;10.15;;
69199;SDS011;56313;49.804;9.952;2022-12-07T05:40:01;13.85;;;9.82;;
69199;SDS011;56313;49.804;9.952;2022-12-07T05:42:46;12.02;;;8.88;;
69199;SDS011;56313;49.804;9.952;2022-12-07T05:45:25;13.98;;;10.00;;
69199;SDS011;56313;49.804;9.952;2022-12-07T05:48:29;12.82;;;9.82;;
69199;SDS011;56313;49.804;9.952;2022-12-07T05:51:15;12.80;;;9.48;;
69199;SDS011;56313;49.804;9.952;2022-12-07T05:53:59;13.18;;;10.45;;
69199;SDS011;56313;49.804;9.952;2022-12-07T05:56:33;15.00;;;10.30;;
69199;SDS011;56313;49.804;9.952;2022-12-07T05:59:10;12.85;;;9.85;;
69199;SDS011;56313;49.804;9.952;2022-12-07T06:02:14;14.25;;;11.10;;
69199;SDS011;56313;49.804;9.952;2022-12-07T06:04:54;16.80;;;11.18;;
69199;SDS011;56313;49.804;9.952;2022-12-07T06:10:29;15.75;;;12.02;;
69199;SDS011;56313;49.804;9.952;2022-12-07T06:13:07;15.50;;;11.15;;
69199;SDS011;56313;49.804;9.952;2022-12-07T06:15:57;15.65;;;11.32;;
69199;SDS011;56313;49.804;9.952;2022-12-07T06:18:57;16.58;;;11.32;;
69199;SDS011;56313;49.804;9.952;2022-12-07T06:35:04;16.73;;;11.73;;
69199;SDS011;56313;49.804;9.952;2022-12-07T06:38:12;14.73;;;10.32;;
69199;SDS011;56313;49.804;9.952;2022-12-07T06:41:27;16.15;;;11.25;;
69199;SDS011;56313;49.804;9.952;2022-12-07T06:44:05;14.70;;;9.85;;
69199;SDS011;56313;49.804;9.952;2022-12-07T06:46:52;15.98;;;11.65;;
69199;SDS011;56313;49.804;9.952;2022-12-07T06:49:55;16.97;;;11.87;;
69199;SDS011;56313;49.804;9.952;2022-12-07T07:10:06;16.65;;;12.45;;
69199;SDS011;56313;49.804;9.952;2022-12-07T07:13:14;17.50;;;11.57;;
69199;SDS011;56313;49.804;9.952;2022-12-07T07:16:24;16.48;;;11.48;;
69199;SDS011;56313;49.804;9.952;2022-12-07T07:22:30;17.35;;;11.43;;
69199;SDS011;56313;49.804;9.952;2022-12-07T07:25:11;16.40;;;11.15;;
69199;SDS011;56313;49.804;9.952;2022-12-07T07:28:46;13.52;;;9.32;;
69199;SDS011;56313;49.804;9.952;2022-12-07T07:31:07;14.68;;;10.35;;
69199;SDS011;56313;49.804;9.952;2022-12-07T07:52:44;15.73;;;11.15;;
69199;SDS011;56313;49.804;9.952;2022-12-07T07:56:08;16.35;;;10.88;;
69199;SDS011;56313;49.804;9.952;2022-12-07T07:58:41;14.88;;;11.00;;
69199;SDS011;56313;49.804;9.952;2022-12-07T08:01:35;15.38;;;10.82;;
69199;SDS011;56313;49.804;9.952;2022-12-07T08:04:15;16.52;;;10.90;;
69199;SDS011;56313;49.804;9.952;2022-12-07T08:07:39;14.70;;;10.60;;
69199;SDS011;56313;49.804;9.952;2022-12-07T08:13:57;14.65;;;10.90;;
69199;SDS011;56313;49.804;9.952;2022-12-07T08:16:28;15.88;;;11.05;;
69199;SDS011;56313;49.804;9.952;2022-12-07T08:18:54;15.32;;;11.40;;
69199;SDS011;56313;49.804;9.952;2022-12-07T08:21:19;18.52;;;11.30;;
69199;SDS011;56313;49.804;9.952;2022-12-07T08:23:47;15.57;;;11.07;;
69199;SDS011;56313;49.804;9.952;2022-12-07T10:08:05;11.73;;;9.18;;
69199;SDS011;56313;49.804;9.952;2022-12-07T10:14:20;12.73;;;9.68;;
69199;SDS011;56313;49.804;9.952;2022-12-07T10:28:25;11.80;;;8.45;;
69199;SDS011;56313;49.804;9.952;2022-12-07T10:31:25;15.00;;;10.90;;
69199;SDS011;56313;49.804;9.952;2022-12-07T10:34:42;13.23;;;8.65;;
69199;SDS011;56313;49.804;9.952;2022-12-07T11:54:32;17.38;;;10.55;;
69199;SDS011;56313;49.804;9.952;2022-12-07T13:58:56;11.40;;;7.03;;
69199;SDS011;56313;49.804;9.952;2022-12-07T14:12:19;10.85;;;6.68;;
69199;SDS011;56313;49.804;9.952;2022-12-07T14:18:25;13.57;;;7.00;;
69199;SDS011;56313;49.804;9.952;2022-12-07T14:21:24;8.48;;;6.05;;
69199;SDS011;56313;49.804;9.952;2022-12-07T14:27:29;8.85;;;5.95;;
69199;SDS011;56313;49.804;9.952;2022-12-07T14:30:06;8.77;;;5.35;;
69199;SDS011;56313;49.804;9.952;2022-12-07T14:32:40;8.70;;;6.45;;
69199;SDS011;56313;49.804;9.952;2022-12-07T14:35:38;10.23;;;5.93;;
69199;SDS011;56313;49.804;9.952;2022-12-07T14:38:31;10.10;;;4.68;;
69199;SDS011;56313;49.804;9.952;2022-12-07T14:47:31;7.82;;;4.20;;
69199;SDS011;56313;49.804;9.952;2022-12-07T14:50:17;8.07;;;5.05;;
69199;SDS011;56313;49.804;9.952;2022-12-07T14:53:10;9.38;;;5.25;;
69199;SDS011;56313;49.804;9.952;2022-12-07T15:29:46;13.13;;;7.95;;
69199;SDS011;56313;49.804;9.952;2022-12-07T15:32:43;15.50;;;10.30;;
69199;SDS011;56313;49.804;9.952;2022-12-07T15:39:01;11.32;;;8.55;;
69199;SDS011;56313;49.804;9.952;2022-12-07T15:42:21;11.23;;;8.15;;
69199;SDS011;56313;49.804;9.952;2022-12-07T15:45:40;13.05;;;8.40;;
69199;SDS011;56313;49.804;9.952;2022-12-07T15:48:22;12.65;;;8.38;;
69199;SDS011;56313;49.804;9.952;2022-12-07T15:51:14;13.82;;;8.15;;
69199;SDS011;56313;49.804;9.952;2022-12-07T15:54:09;12.60;;;9.13;;
69199;SDS011;56313;49.804;9.952;2022-12-07T15:56:48;10.95;;;8.43;;
69199;SDS011;56313;49.804;9.952;2022-12-07T15:59:29;11.98;;;8.50;;
69199;SDS011;56313;49.804;9.952;2022-12-07T16:02:23;12.63;;;8.63;;
69199;SDS011;56313;49.804;9.952;2022-12-07T16:05:18;13.00;;;8.68;;
69199;SDS011;56313;49.804;9.952;2022-12-07T17:30:44;7.93;;;5.75;;
69199;SDS011;56313;49.804;9.952;2022-12-07T18:26:18;15.00;;;8.82;;
69199;SDS011;56313;49.804;9.952;2022-12-07T18:28:55;13.65;;;9.18;;
69199;SDS011;56313;49.804;9.952;2022-12-07T18:31:32;15.57;;;8.77;;
69199;SDS011;56313;49.804;9.952;2022-12-07T18:34:18;12.70;;;9.48;;
69199;SDS011;56313;49.804;9.952;2022-12-07T18:36:46;14.45;;;9.50;;
69199;SDS011;56313;49.804;9.952;2022-12-07T18:39:30;12.98;;;9.52;;
69199;SDS011;56313;49.804;9.952;2022-12-07T18:42:04;13.38;;;9.82;;
69199;SDS011;56313;49.804;9.952;2022-12-07T18:44:41;14.68;;;9.90;;
69199;SDS011;56313;49.804;9.952;2022-12-07T18:47:14;15.80;;;9.88;;
69199;SDS011;56313;49.804;9.952;2022-12-07T18:49:40;12.55;;;10.13;;
69199;SDS011;56313;49.804;9.952;2022-12-07T18:52:15;12.32;;;9.52;;
69199;SDS011;56313;49.804;9.952;2022-12-07T18:54:45;14.23;;;9.73;;
69199;SDS011;56313;49.804;9.952;2022-12-07T18:57:40;14.75;;;9.15;;
69199;SDS011;56313;49.804;9.952;2022-12-07T19:00:26;13.85;;;9.68;;
69199;SDS011;56313;49.804;9.952;2022-12-07T19:03:01;14.75;;;10.02;;
69199;SDS011;56313;49.804;9.952;2022-12-07T19:05:38;15.68;;;11.05;;
69199;SDS011;56313;49.804;9.952;2022-12-07T19:08:03;16.55;;;10.65;;
69199;SDS011;56313;49.804;9.952;2022-12-07T19:10:52;17.17;;;11.15;;
69199;SDS011;56313;49.804;9.952;2022-12-07T19:13:43;16.45;;;11.95;;
69199;SDS011;56313;49.804;9.952;2022-12-07T19:16:11;15.45;;;12.15;;
69199;SDS011;56313;49.804;9.952;2022-12-07T19:21:47;12.77;;;10.65;;
69199;SDS011;56313;49.804;9.952;2022-12-07T19:24:16;16.33;;;10.57;;
69199;SDS011;56313;49.804;9.952;2022-12-07T19:26:44;14.35;;;9.95;;
69199;SDS011;56313;49.804;9.952;2022-12-07T19:29:14;14.07;;;9.43;;
69199;SDS011;56313;49.804;9.952;2022-12-07T19:31:40;13.00;;;10.05;;
69199;SDS011;56313;49.804;9.952;2022-12-07T19:34:11;12.60;;;8.48;;
69199;SDS011;56313;49.804;9.952;2022-12-07T19:36:37;10.95;;;8.88;;
69199;SDS011;56313;49.804;9.952;2022-12-07T19:52:34;14.20;;;9.30;;
69199;SDS011;56313;49.804;9.952;2022-12-07T19:55:53;19.25;;;14.75;;
69199;SDS011;56313;49.804;9.952;2022-12-07T19:58:51;12.70;;;10.18;;
69199;SDS011;56313;49.804;9.952;2022-12-07T20:01:58;14.13;;;9.30;;
69199;SDS011;56313;49.804;9.952;2022-12-07T20:04:32;15.23;;;11.95;;
69199;SDS011;56313;49.804;9.952;2022-12-07T20:07:33;15.73;;;10.30;;
69199;SDS011;56313;49.804;9.952;2022-12-07T20:13:42;12.77;;;10.15;;
69199;SDS011;56313;49.804;9.952;2022-12-07T20:20:10;14.68;;;10.82;;
69199;SDS011;56313;49.804;9.952;2022-12-07T20:26:25;15.63;;;11.50;;
69199;SDS011;56313;49.804;9.952;2022-12-07T20:29:56;14.27;;;10.55;;
69199;SDS011;56313;49.804;9.952;2022-12-07T20:36:01;14.00;;;9.25;;
69199;SDS011;56313;49.804;9.952;2022-12-07T20:38:33;15.05;;;10.70;;
69199;SDS011;56313;49.804;9.952;2022-12-07T20:41:00;12.95;;;10.38;;
69199;SDS011;56313;49.804;9.952;2022-12-07T20:43:29;12.00;;;9.70;;
69199;SDS011;56313;49.804;9.952;2022-12-07T20:45:55;15.95;;;11.25;;
69199;SDS011;56313;49.804;9.952;2022-12-07T20:48:21;12.80;;;9.93;;
69199;SDS011;56313;49.804;9.952;2022-12-07T20:50:48;11.27;;;7.88;;
69199;SDS011;56313;49.804;9.952;2022-12-07T20:53:13;15.05;;;11.07;;
69199;SDS011;56313;49.804;9.952;2022-12-07T20:55:39;14.85;;;10.88;;
69199;SDS011;56313;49.804;9.952;2022-12-07T20:58:04;15.00;;;11.18;;
69199;SDS011;56313;49.804;9.952;2022-12-07T21:00:30;16.48;;;12.43;;
69199;SDS011;56313;49.804;9.952;2022-12-07T21:02:56;17.27;;;11.82;;
69199;SDS011;56313;49.804;9.952;2022-12-07T21:05:22;13.65;;;11.13;;
69199;SDS011;56313;49.804;9.952;2022-12-07T21:07:48;20.40;;;11.88;;
69199;SDS011;56313;49.804;9.952;2022-12-07T21:10:14;16.70;;;12.57;;
69199;SDS011;56313;49.804;9.952;2022-12-07T21:12:39;14.98;;;12.60;;
69199;SDS011;56313;49.804;9.952;2022-12-07T21:15:05;17.65;;;13.00;;
69199;SDS011;56313;49.804;9.952;2022-12-07T21:17:31;18.25;;;12.23;;
69199;SDS011;56313;49.804;9.952;2022-12-07T21:19:57;16.05;;;12.25;;
69199;SDS011;56313;49.804;9.952;2022-12-07T21:22:24;15.82;;;12.05;;
69199;SDS011;56313;49.804;9.952;2022-12-07T21:24:55;18.23;;;13.48;;
69199;SDS011;56313;49.804;9.952;2022-12-07T21:27:31;16.45;;;12.75;;
69199;SDS011;56313;49.804;9.952;2022-12-07T21:29:57;16.40;;;12.90;;
69199;SDS011;56313;49.804;9.952;2022-12-07T21:32:23;18.05;;;13.98;;
69199;SDS011;56313;49.804;9.952;2022-12-07T21:35:10;18.40;;;13.32;;
69199;SDS011;56313;49.804;9.952;2022-12-07T21:37:57;17.88;;;13.88;;
69199;SDS011;56313;49.804;9.952;2022-12-07T21:40:41;16.95;;;12.98;;
69199;SDS011;56313;49.804;9.952;2022-12-07T21:43:25;20.10;;;14.32;;
69199;SDS011;56313;49.804;9.952;2022-12-07T21:49:04;18.67;;;14.25;;
69199;SDS011;56313;49.804;9.952;2022-12-07T21:51:35;18.98;;;14.10;;
69199;SDS011;56313;49.804;9.952;2022-12-07T21:54:03;18.88;;;14.18;;
69199;SDS011;56313;49.804;9.952;2022-12-07T21:56:30;18.23;;;13.70;;
69199;SDS011;56313;49.804;9.952;2022-12-07T21:59:02;18.30;;;14.40;;
69199;SDS011;56313;49.804;9.952;2022-12-07T22:01:30;20.98;;;14.90;;
69199;SDS011;56313;49.804;9.952;2022-12-07T22:04:03;21.05;;;14.55;;
69199;SDS011;56313;49.804;9.952;2022-12-07T22:06:37;20.77;;;14.30;;
69199;SDS011;56313;49.804;9.952;2022-12-07T22:09:05;18.95;;;14.20;;
69199;SDS011;56313;49.804;9.952;2022-12-07T22:11:34;18.85;;;13.68;;
69199;SDS011;56313;49.804;9.952;2022-12-07T22:14:00;18.83;;;14.43;;
69199;SDS011;56313;49.804;9.952;2022-12-07T22:16:45;18.13;;;14.50;;
69199;SDS011;56313;49.804;9.952;2022-12-07T22:19:31;20.60;;;14.57;;
69199;SDS011;56313;49.804;9.952;2022-12-07T22:22:00;20.15;;;14.90;;
69199;SDS011;56313;49.804;9.952;2022-12-07T22:24:28;22.77;;;14.60;;
69199;SDS011;56313;49.804;9.952;2022-12-07T22:27:26;18.35;;;13.70;;
69199;SDS011;56313;49.804;9.952;2022-12-07T22:29:52;19.38;;;14.13;;
69199;SDS011;56313;49.804;9.952;2022-12-07T22:32:19;18.88;;;13.98;;
69199;SDS011;56313;49.804;9.952;2022-12-07T22:34:45;20.45;;;14.15;;
69199;SDS011;56313;49.804;9.952;2022-12-07T22:37:13;18.17;;;13.80;;
69199;SDS011;56313;49.804;9.952;2022-12-07T22:39:45;22.02;;;14.82;;
69199;SDS011;56313;49.804;9.952;2022-12-07T22:42:11;20.02;;;14.07;;
69199;SDS011;56313;49.804;9.952;2022-12-07T22:44:36;22.42;;;14.32;;
69199;SDS011;56313;49.804;9.952;2022-12-07T22:47:04;22.88;;;14.55;;
69199;SDS011;56313;49.804;9.952;2022-12-07T22:49:32;20.33;;;14.63;;
69199;SDS011;56313;49.804;9.952;2022-12-07T22:51:57;20.63;;;15.30;;
69199;SDS011;56313;49.804;9.952;2022-12-07T22:54:23;22.30;;;14.35;;
69199;SDS011;56313;49.804;9.952;2022-12-07T22:56:48;21.67;;;15.85;;
69199;SDS011;56313;49.804;9.952;2022-12-07T22:59:14;19.75;;;15.48;;
69199;SDS011;56313;49.804;9.952;2022-12-07T23:01:57;20.55;;;15.38;;
69199;SDS011;56313;49.804;9.952;2022-12-07T23:04:22;19.92;;;15.68;;
69199;SDS011;56313;49.804;9.952;2022-12-07T23:06:56;21.67;;;16.27;;
69199;SDS011;56313;49.804;9.952;2022-12-07T23:09:27;20.50;;;14.98;;
69199;SDS011;56313;49.804;9.952;2022-12-07T23:12:01;19.77;;;15.20;;
69199;SDS011;56313;49.804;9.952;2022-12-07T23:14:48;23.35;;;15.48;;
69199;SDS011;56313;49.804;9.952;2022-12-07T23:17:21;22.42;;;15.88;;
69199;SDS011;56313;49.804;9.952;2022-12-07T23:19:51;21.45;;;16.42;;
69199;SDS011;56313;49.804;9.952;2022-12-07T23:22:36;20.67;;;15.27;;
69199;SDS011;56313;49.804;9.952;2022-12-07T23:25:18;25.85;;;17.52;;
69199;SDS011;56313;49.804;9.952;2022-12-07T23:27:49;21.67;;;15.23;;
69199;SDS011;56313;49.804;9.952;2022-12-07T23:30:38;24.33;;;17.10;;
69199;SDS011;56313;49.804;9.952;2022-12-07T23:33:03;21.45;;;15.25;;
69199;SDS011;56313;49.804;9.952;2022-12-07T23:35:29;20.48;;;16.35;;
69199;SDS011;56313;49.804;9.952;2022-12-07T23:38:05;19.10;;;15.23;;
69199;SDS011;56313;49.804;9.952;2022-12-07T23:40:39;24.38;;;16.58;;
69199;SDS011;56313;49.804;9.952;2022-12-07T23:43:13;20.33;;;15.32;;
69199;SDS011;56313;49.804;9.952;2022-12-07T23:45:38;21.73;;;15.82;;
69199;SDS011;56313;49.804;9.952;2022-12-07T23:48:12;22.27;;;16.83;;
69199;SDS011;56313;49.804;9.952;2022-12-07T23:50:37;20.42;;;15.82;;
69199;SDS011;56313;49.804;9.952;2022-12-07T23:53:03;19.40;;;15.50;;
69199;SDS011;56313;49.804;9.952;2022-12-07T23:55:28;24.17;;;16.60;;
69199;SDS011;56313;49.804;9.952;2022-12-07T23:57:54;23.33;;;16.48;;
